KRBG

Details ICAO KRBG
Name Roseburg Rgnl
Region United States
Timezone America/Los_Angeles (UTC-7.0)
Plans Departing 11
Arriving 19
Stats Elevation 529 ft / 161 m (AMSL)
Location 43.238783° -123.355860°
Runways 1
Magnetic Variation 14.818° E
Sunrise 2018-05-23 12:43:27 UTC / 2018-05-23 05:43:27 Local
Sunset 2018-05-24 03:39:49 UTC / 2018-05-23 20:39:49 Local
Advertisement - Login to hide

Runways

ID Width Length Bearing (true) Bearing (mag) Surface Threshold Offset Overrun Length
16 100 ft / 30 m 4,606 ft / 1,404 m 179.95° 165.13° Asphalt 700 ft / 213 m 0 ft / 0 m
34 100 ft / 30 m 4,606 ft / 1,404 m 359.95° 345.13° Asphalt 371 ft / 113 m 0 ft / 0 m

Map

Weather


0- 5 10 15 20 25 30 35+ Temperature / ° C

Clouds and Precipitation
Forecast for 2018-05-24 00:00 UTC. Updated 6 hours ago

Ground ~20,000 ft ~40,000 ft Winds

METAR

KRBG 240453Z AUTO 36007KT 10SM OVC024 16/10 A2999 RMK AO2 SLP153 T01560100

TAF

TAF KRBG 232343Z 2400/2424 34009KT P6SM SCT050 BKN090 FM240300 VRB03KT P6SM VCSH BKN025 OVC050 FM241800 35005KT P6SM SCT030 BKN050

Frequencies

Recorded 135.47 MHz ASOS
Unicom 122.80 MHz CTAF/UNICOM
Warning: Do not use this data for real-world aviation or navigation. No guarantee of current accuracy is given.